Terminal Aerodrome Forecast
Issued by NWS

Home | Current Version | Previous Version | Text Only | Print | Product List | Glossary Off
Versions: 1 2 3 4 5 6 7 8 9 10 11 12 13 14 15 16 17

000
FTUS43 KICT 261741
TAFHUT
TAF
KHUT 261741Z 2618/2718 31008KT P6SM SKC
     FM261900 23007KT P6SM SCT100
     FM270500 02015G22KT P6SM SCT015
     FM271500 04009KT P6SM BKN060=

USA.gov is the U.S. government's official web portal to all federal, state and local government web resources and services.